sensor_id;sensor_type;location;lat;lon;timestamp;P1;durP1;ratioP1;P2;durP2;ratioP2
76693;SDS011;69667;52.136;5.424;2024-02-21T00:00:44;4.30;;;1.70;;
76693;SDS011;69667;52.136;5.424;2024-02-21T00:03:12;11.90;;;2.53;;
76693;SDS011;69667;52.136;5.424;2024-02-21T00:05:40;6.68;;;1.63;;
76693;SDS011;69667;52.136;5.424;2024-02-21T00:08:09;6.75;;;1.80;;
76693;SDS011;69667;52.136;5.424;2024-02-21T00:10:38;6.38;;;1.42;;
76693;SDS011;69667;52.136;5.424;2024-02-21T00:15:35;4.70;;;1.63;;
76693;SDS011;69667;52.136;5.424;2024-02-21T00:18:03;5.93;;;1.58;;
76693;SDS011;69667;52.136;5.424;2024-02-21T00:20:32;6.82;;;1.92;;
76693;SDS011;69667;52.136;5.424;2024-02-21T00:23:00;7.63;;;1.55;;
76693;SDS011;69667;52.136;5.424;2024-02-21T00:25:29;5.97;;;1.58;;
76693;SDS011;69667;52.136;5.424;2024-02-21T00:27:57;5.32;;;1.10;;
76693;SDS011;69667;52.136;5.424;2024-02-21T00:30:25;4.57;;;1.58;;
76693;SDS011;69667;52.136;5.424;2024-02-21T00:32:54;2.35;;;1.20;;
76693;SDS011;69667;52.136;5.424;2024-02-21T00:35:23;10.95;;;1.95;;
76693;SDS011;69667;52.136;5.424;2024-02-21T00:37:52;7.63;;;1.73;;
76693;SDS011;69667;52.136;5.424;2024-02-21T00:40:20;5.75;;;1.40;;
76693;SDS011;69667;52.136;5.424;2024-02-21T00:42:50;8.02;;;1.23;;
76693;SDS011;69667;52.136;5.424;2024-02-21T00:45:18;7.00;;;1.25;;
76693;SDS011;69667;52.136;5.424;2024-02-21T00:47:48;5.15;;;1.15;;
76693;SDS011;69667;52.136;5.424;2024-02-21T00:50:23;4.30;;;1.35;;
76693;SDS011;69667;52.136;5.424;2024-02-21T00:52:51;4.22;;;1.20;;
76693;SDS011;69667;52.136;5.424;2024-02-21T00:55:20;4.22;;;1.23;;
76693;SDS011;69667;52.136;5.424;2024-02-21T00:57:48;3.80;;;0.95;;
76693;SDS011;69667;52.136;5.424;2024-02-21T01:00:17;4.55;;;1.70;;
76693;SDS011;69667;52.136;5.424;2024-02-21T01:02:45;7.25;;;1.23;;
76693;SDS011;69667;52.136;5.424;2024-02-21T01:05:17;6.60;;;1.52;;
76693;SDS011;69667;52.136;5.424;2024-02-21T01:07:46;4.70;;;1.60;;
76693;SDS011;69667;52.136;5.424;2024-02-21T01:10:14;5.05;;;1.33;;
76693;SDS011;69667;52.136;5.424;2024-02-21T01:12:43;2.53;;;1.20;;
76693;SDS011;69667;52.136;5.424;2024-02-21T01:15:12;12.05;;;1.63;;
76693;SDS011;69667;52.136;5.424;2024-02-21T01:17:40;4.90;;;1.63;;
76693;SDS011;69667;52.136;5.424;2024-02-21T01:20:09;7.72;;;2.10;;
76693;SDS011;69667;52.136;5.424;2024-02-21T01:22:38;3.10;;;1.30;;
76693;SDS011;69667;52.136;5.424;2024-02-21T01:25:06;9.57;;;1.90;;
76693;SDS011;69667;52.136;5.424;2024-02-21T01:27:35;1.95;;;1.02;;
76693;SDS011;69667;52.136;5.424;2024-02-21T01:30:11;3.70;;;1.60;;
76693;SDS011;69667;52.136;5.424;2024-02-21T01:32:40;9.15;;;1.90;;
76693;SDS011;69667;52.136;5.424;2024-02-21T01:35:10;4.47;;;1.73;;
76693;SDS011;69667;52.136;5.424;2024-02-21T01:40:07;7.20;;;2.03;;
76693;SDS011;69667;52.136;5.424;2024-02-21T01:42:39;8.07;;;1.73;;
76693;SDS011;69667;52.136;5.424;2024-02-21T01:45:08;6.35;;;2.10;;
76693;SDS011;69667;52.136;5.424;2024-02-21T01:47:36;7.38;;;1.92;;
76693;SDS011;69667;52.136;5.424;2024-02-21T01:50:06;6.50;;;2.08;;
76693;SDS011;69667;52.136;5.424;2024-02-21T01:52:35;9.15;;;2.17;;
76693;SDS011;69667;52.136;5.424;2024-02-21T01:55:04;8.75;;;1.83;;
76693;SDS011;69667;52.136;5.424;2024-02-21T01:57:33;8.95;;;2.42;;
76693;SDS011;69667;52.136;5.424;2024-02-21T02:00:02;12.15;;;2.42;;
76693;SDS011;69667;52.136;5.424;2024-02-21T02:02:36;8.82;;;1.95;;
76693;SDS011;69667;52.136;5.424;2024-02-21T02:05:07;3.88;;;1.73;;
76693;SDS011;69667;52.136;5.424;2024-02-21T02:07:49;8.07;;;2.55;;
76693;SDS011;69667;52.136;5.424;2024-02-21T02:10:17;4.85;;;1.90;;
76693;SDS011;69667;52.136;5.424;2024-02-21T02:12:45;7.05;;;2.40;;
76693;SDS011;69667;52.136;5.424;2024-02-21T02:15:14;6.55;;;2.45;;
76693;SDS011;69667;52.136;5.424;2024-02-21T02:17:42;2.45;;;1.42;;
76693;SDS011;69667;52.136;5.424;2024-02-21T02:20:11;7.93;;;2.00;;
76693;SDS011;69667;52.136;5.424;2024-02-21T02:22:40;4.50;;;1.70;;
76693;SDS011;69667;52.136;5.424;2024-02-21T02:25:11;5.55;;;1.80;;
76693;SDS011;69667;52.136;5.424;2024-02-21T02:27:43;7.97;;;2.13;;
76693;SDS011;69667;52.136;5.424;2024-02-21T02:30:12;7.03;;;2.42;;
76693;SDS011;69667;52.136;5.424;2024-02-21T02:32:44;5.70;;;2.22;;
76693;SDS011;69667;52.136;5.424;2024-02-21T02:35:13;4.28;;;2.03;;
76693;SDS011;69667;52.136;5.424;2024-02-21T02:37:47;8.18;;;2.17;;
76693;SDS011;69667;52.136;5.424;2024-02-21T02:40:21;3.72;;;1.50;;
76693;SDS011;69667;52.136;5.424;2024-02-21T02:42:50;3.95;;;1.92;;
76693;SDS011;69667;52.136;5.424;2024-02-21T02:45:22;6.55;;;2.85;;
76693;SDS011;69667;52.136;5.424;2024-02-21T02:47:53;8.23;;;1.80;;
76693;SDS011;69667;52.136;5.424;2024-02-21T02:50:22;9.45;;;2.67;;
76693;SDS011;69667;52.136;5.424;2024-02-21T02:52:51;4.57;;;1.88;;
76693;SDS011;69667;52.136;5.424;2024-02-21T02:55:20;3.47;;;1.98;;
76693;SDS011;69667;52.136;5.424;2024-02-21T02:57:48;4.75;;;1.92;;
76693;SDS011;69667;52.136;5.424;2024-02-21T03:00:16;6.63;;;2.22;;
76693;SDS011;69667;52.136;5.424;2024-02-21T03:02:46;7.22;;;1.83;;
76693;SDS011;69667;52.136;5.424;2024-02-21T03:05:18;6.55;;;2.17;;
76693;SDS011;69667;52.136;5.424;2024-02-21T03:07:48;8.70;;;1.85;;
76693;SDS011;69667;52.136;5.424;2024-02-21T03:10:17;3.30;;;1.98;;
76693;SDS011;69667;52.136;5.424;2024-02-21T03:12:46;7.07;;;2.38;;
76693;SDS011;69667;52.136;5.424;2024-02-21T03:15:15;9.23;;;2.30;;
76693;SDS011;69667;52.136;5.424;2024-02-21T03:17:43;5.53;;;2.13;;
76693;SDS011;69667;52.136;5.424;2024-02-21T03:20:11;3.70;;;1.67;;
76693;SDS011;69667;52.136;5.424;2024-02-21T03:22:40;5.70;;;1.90;;
76693;SDS011;69667;52.136;5.424;2024-02-21T03:27:38;8.30;;;1.60;;
76693;SDS011;69667;52.136;5.424;2024-02-21T03:30:06;4.15;;;2.03;;
76693;SDS011;69667;52.136;5.424;2024-02-21T03:32:35;4.35;;;1.83;;
76693;SDS011;69667;52.136;5.424;2024-02-21T03:35:05;6.50;;;2.45;;
76693;SDS011;69667;52.136;5.424;2024-02-21T03:37:33;7.82;;;1.92;;
76693;SDS011;69667;52.136;5.424;2024-02-21T03:40:02;10.05;;;2.15;;
76693;SDS011;69667;52.136;5.424;2024-02-21T03:42:34;10.43;;;2.50;;
76693;SDS011;69667;52.136;5.424;2024-02-21T03:45:02;6.30;;;1.88;;
76693;SDS011;69667;52.136;5.424;2024-02-21T03:47:30;7.00;;;2.53;;
76693;SDS011;69667;52.136;5.424;2024-02-21T03:49:59;7.55;;;2.55;;
76693;SDS011;69667;52.136;5.424;2024-02-21T03:52:27;5.65;;;2.30;;
76693;SDS011;69667;52.136;5.424;2024-02-21T03:54:56;12.05;;;2.45;;
76693;SDS011;69667;52.136;5.424;2024-02-21T03:57:24;7.85;;;2.40;;
76693;SDS011;69667;52.136;5.424;2024-02-21T03:59:52;6.22;;;2.20;;
76693;SDS011;69667;52.136;5.424;2024-02-21T04:02:20;8.45;;;2.20;;
76693;SDS011;69667;52.136;5.424;2024-02-21T04:04:49;9.82;;;2.58;;
76693;SDS011;69667;52.136;5.424;2024-02-21T04:07:17;4.90;;;2.00;;
76693;SDS011;69667;52.136;5.424;2024-02-21T04:09:46;8.63;;;1.90;;
76693;SDS011;69667;52.136;5.424;2024-02-21T04:12:14;5.57;;;2.28;;
76693;SDS011;69667;52.136;5.424;2024-02-21T04:14:42;7.75;;;2.00;;
76693;SDS011;69667;52.136;5.424;2024-02-21T04:17:13;5.28;;;2.10;;
76693;SDS011;69667;52.136;5.424;2024-02-21T04:19:41;5.53;;;1.77;;
76693;SDS011;69667;52.136;5.424;2024-02-21T04:22:10;5.45;;;2.45;;
76693;SDS011;69667;52.136;5.424;2024-02-21T04:24:38;7.18;;;2.03;;
76693;SDS011;69667;52.136;5.424;2024-02-21T04:27:06;6.10;;;1.67;;
76693;SDS011;69667;52.136;5.424;2024-02-21T04:29:35;3.88;;;1.75;;
76693;SDS011;69667;52.136;5.424;2024-02-21T04:32:03;4.53;;;2.00;;
76693;SDS011;69667;52.136;5.424;2024-02-21T04:34:32;5.70;;;2.15;;
76693;SDS011;69667;52.136;5.424;2024-02-21T04:37:00;5.65;;;2.58;;
76693;SDS011;69667;52.136;5.424;2024-02-21T04:39:29;12.40;;;2.10;;
76693;SDS011;69667;52.136;5.424;2024-02-21T04:41:57;5.72;;;2.10;;
76693;SDS011;69667;52.136;5.424;2024-02-21T04:44:25;8.63;;;2.40;;
76693;SDS011;69667;52.136;5.424;2024-02-21T04:46:53;4.55;;;1.75;;
76693;SDS011;69667;52.136;5.424;2024-02-21T04:49:22;6.80;;;2.33;;
76693;SDS011;69667;52.136;5.424;2024-02-21T04:51:50;4.22;;;1.95;;
76693;SDS011;69667;52.136;5.424;2024-02-21T04:54:18;7.20;;;2.33;;
76693;SDS011;69667;52.136;5.424;2024-02-21T04:56:47;5.55;;;2.22;;
76693;SDS011;69667;52.136;5.424;2024-02-21T04:59:19;6.82;;;2.47;;
76693;SDS011;69667;52.136;5.424;2024-02-21T05:01:47;4.90;;;2.25;;
76693;SDS011;69667;52.136;5.424;2024-02-21T05:04:15;6.25;;;2.13;;
76693;SDS011;69667;52.136;5.424;2024-02-21T05:06:44;6.45;;;2.33;;
76693;SDS011;69667;52.136;5.424;2024-02-21T05:09:12;5.05;;;2.22;;
76693;SDS011;69667;52.136;5.424;2024-02-21T05:11:40;4.18;;;2.28;;
76693;SDS011;69667;52.136;5.424;2024-02-21T05:14:09;6.78;;;2.10;;
76693;SDS011;69667;52.136;5.424;2024-02-21T05:16:38;7.18;;;2.58;;
76693;SDS011;69667;52.136;5.424;2024-02-21T05:19:07;6.22;;;2.33;;
76693;SDS011;69667;52.136;5.424;2024-02-21T05:21:35;8.40;;;2.45;;
76693;SDS011;69667;52.136;5.424;2024-02-21T05:24:04;5.78;;;2.47;;
76693;SDS011;69667;52.136;5.424;2024-02-21T05:26:32;6.15;;;2.10;;
76693;SDS011;69667;52.136;5.424;2024-02-21T05:29:00;4.53;;;2.25;;
76693;SDS011;69667;52.136;5.424;2024-02-21T05:31:42;4.82;;;2.20;;
76693;SDS011;69667;52.136;5.424;2024-02-21T05:34:31;5.15;;;2.17;;
76693;SDS011;69667;52.136;5.424;2024-02-21T05:36:59;8.52;;;2.30;;
76693;SDS011;69667;52.136;5.424;2024-02-21T05:39:28;8.77;;;2.42;;
76693;SDS011;69667;52.136;5.424;2024-02-21T05:41:58;5.63;;;2.95;;
76693;SDS011;69667;52.136;5.424;2024-02-21T05:44:26;5.20;;;2.15;;
76693;SDS011;69667;52.136;5.424;2024-02-21T05:46:54;6.65;;;2.28;;
76693;SDS011;69667;52.136;5.424;2024-02-21T05:49:23;8.63;;;3.15;;
76693;SDS011;69667;52.136;5.424;2024-02-21T05:51:51;8.65;;;2.67;;
76693;SDS011;69667;52.136;5.424;2024-02-21T05:54:19;5.57;;;2.47;;
76693;SDS011;69667;52.136;5.424;2024-02-21T05:56:48;5.85;;;2.40;;
76693;SDS011;69667;52.136;5.424;2024-02-21T05:59:16;4.65;;;2.17;;
76693;SDS011;69667;52.136;5.424;2024-02-21T06:01:44;6.78;;;2.60;;
76693;SDS011;69667;52.136;5.424;2024-02-21T06:04:13;6.72;;;2.15;;
76693;SDS011;69667;52.136;5.424;2024-02-21T06:06:47;4.63;;;2.10;;
76693;SDS011;69667;52.136;5.424;2024-02-21T06:09:15;5.32;;;2.60;;
76693;SDS011;69667;52.136;5.424;2024-02-21T06:11:43;6.40;;;2.83;;
76693;SDS011;69667;52.136;5.424;2024-02-21T06:14:13;5.25;;;2.65;;
76693;SDS011;69667;52.136;5.424;2024-02-21T06:16:43;8.98;;;2.85;;
76693;SDS011;69667;52.136;5.424;2024-02-21T06:19:11;5.22;;;2.75;;
76693;SDS011;69667;52.136;5.424;2024-02-21T06:21:40;12.27;;;3.15;;
76693;SDS011;69667;52.136;5.424;2024-02-21T06:24:08;5.70;;;3.22;;
76693;SDS011;69667;52.136;5.424;2024-02-21T06:26:37;8.85;;;2.83;;
76693;SDS011;69667;52.136;5.424;2024-02-21T06:29:05;6.07;;;3.53;;
76693;SDS011;69667;52.136;5.424;2024-02-21T06:31:35;6.05;;;2.90;;
76693;SDS011;69667;52.136;5.424;2024-02-21T06:34:03;9.55;;;2.70;;
76693;SDS011;69667;52.136;5.424;2024-02-21T06:36:31;9.20;;;3.67;;
76693;SDS011;69667;52.136;5.424;2024-02-21T06:39:00;7.57;;;3.47;;
76693;SDS011;69667;52.136;5.424;2024-02-21T06:41:28;10.40;;;5.05;;
76693;SDS011;69667;52.136;5.424;2024-02-21T06:46:26;13.55;;;4.00;;
76693;SDS011;69667;52.136;5.424;2024-02-21T06:49:00;8.00;;;3.50;;
76693;SDS011;69667;52.136;5.424;2024-02-21T06:51:33;9.05;;;4.15;;
76693;SDS011;69667;52.136;5.424;2024-02-21T06:54:02;12.63;;;4.15;;
76693;SDS011;69667;52.136;5.424;2024-02-21T06:56:30;10.40;;;3.95;;
76693;SDS011;69667;52.136;5.424;2024-02-21T06:58:59;13.68;;;5.40;;
76693;SDS011;69667;52.136;5.424;2024-02-21T07:01:27;8.85;;;4.57;;
76693;SDS011;69667;52.136;5.424;2024-02-21T07:03:56;9.80;;;5.13;;
76693;SDS011;69667;52.136;5.424;2024-02-21T07:06:24;10.77;;;4.45;;
76693;SDS011;69667;52.136;5.424;2024-02-21T07:08:52;11.32;;;4.05;;
76693;SDS011;69667;52.136;5.424;2024-02-21T07:11:21;10.02;;;4.97;;
76693;SDS011;69667;52.136;5.424;2024-02-21T07:13:49;10.07;;;5.03;;
76693;SDS011;69667;52.136;5.424;2024-02-21T07:16:18;14.13;;;5.65;;
76693;SDS011;69667;52.136;5.424;2024-02-21T07:18:46;17.23;;;5.72;;
76693;SDS011;69667;52.136;5.424;2024-02-21T07:21:14;11.75;;;4.40;;
76693;SDS011;69667;52.136;5.424;2024-02-21T07:23:42;11.20;;;5.07;;
76693;SDS011;69667;52.136;5.424;2024-02-21T07:26:11;15.32;;;4.47;;
76693;SDS011;69667;52.136;5.424;2024-02-21T07:28:41;8.35;;;4.25;;
76693;SDS011;69667;52.136;5.424;2024-02-21T07:31:11;11.27;;;4.97;;
76693;SDS011;69667;52.136;5.424;2024-02-21T07:33:39;10.90;;;4.63;;
76693;SDS011;69667;52.136;5.424;2024-02-21T07:36:09;12.25;;;4.53;;
76693;SDS011;69667;52.136;5.424;2024-02-21T07:38:39;10.88;;;4.47;;
76693;SDS011;69667;52.136;5.424;2024-02-21T07:41:07;9.10;;;3.50;;
76693;SDS011;69667;52.136;5.424;2024-02-21T07:43:35;7.13;;;3.63;;
76693;SDS011;69667;52.136;5.424;2024-02-21T07:46:04;9.85;;;4.03;;
76693;SDS011;69667;52.136;5.424;2024-02-21T07:48:32;9.80;;;4.85;;
76693;SDS011;69667;52.136;5.424;2024-02-21T07:51:01;10.52;;;4.22;;
76693;SDS011;69667;52.136;5.424;2024-02-21T07:53:29;9.68;;;3.22;;
76693;SDS011;69667;52.136;5.424;2024-02-21T07:55:58;9.25;;;3.28;;
76693;SDS011;69667;52.136;5.424;2024-02-21T07:58:26;9.07;;;3.28;;
76693;SDS011;69667;52.136;5.424;2024-02-21T08:00:54;9.23;;;3.65;;
76693;SDS011;69667;52.136;5.424;2024-02-21T08:03:23;10.15;;;3.92;;
76693;SDS011;69667;52.136;5.424;2024-02-21T08:05:52;10.35;;;3.33;;
76693;SDS011;69667;52.136;5.424;2024-02-21T08:08:21;8.23;;;3.88;;
76693;SDS011;69667;52.136;5.424;2024-02-21T08:10:49;10.15;;;3.35;;
76693;SDS011;69667;52.136;5.424;2024-02-21T08:13:23;10.48;;;3.50;;
76693;SDS011;69667;52.136;5.424;2024-02-21T08:15:52;11.48;;;3.55;;
76693;SDS011;69667;52.136;5.424;2024-02-21T08:18:20;9.85;;;3.75;;
76693;SDS011;69667;52.136;5.424;2024-02-21T08:20:49;7.70;;;3.30;;
76693;SDS011;69667;52.136;5.424;2024-02-21T08:23:18;9.88;;;4.35;;
76693;SDS011;69667;52.136;5.424;2024-02-21T08:25:48;9.35;;;3.53;;
76693;SDS011;69667;52.136;5.424;2024-02-21T08:28:17;10.88;;;3.15;;
76693;SDS011;69667;52.136;5.424;2024-02-21T08:30:45;12.13;;;3.33;;
76693;SDS011;69667;52.136;5.424;2024-02-21T08:33:16;9.50;;;4.07;;
76693;SDS011;69667;52.136;5.424;2024-02-21T08:35:46;10.70;;;4.50;;
76693;SDS011;69667;52.136;5.424;2024-02-21T08:38:14;9.70;;;4.05;;
76693;SDS011;69667;52.136;5.424;2024-02-21T08:40:42;9.98;;;4.45;;
76693;SDS011;69667;52.136;5.424;2024-02-21T08:43:11;11.35;;;4.55;;
76693;SDS011;69667;52.136;5.424;2024-02-21T08:45:39;6.65;;;3.72;;
76693;SDS011;69667;52.136;5.424;2024-02-21T08:48:07;17.98;;;4.50;;
76693;SDS011;69667;52.136;5.424;2024-02-21T08:50:37;8.75;;;4.13;;
76693;SDS011;69667;52.136;5.424;2024-02-21T08:53:07;15.80;;;5.25;;
76693;SDS011;69667;52.136;5.424;2024-02-21T08:55:35;7.55;;;3.78;;
76693;SDS011;69667;52.136;5.424;2024-02-21T08:58:03;8.25;;;4.30;;
76693;SDS011;69667;52.136;5.424;2024-02-21T09:00:32;7.80;;;3.67;;
76693;SDS011;69667;52.136;5.424;2024-02-21T09:03:01;13.68;;;3.90;;
76693;SDS011;69667;52.136;5.424;2024-02-21T09:05:30;11.20;;;3.72;;
76693;SDS011;69667;52.136;5.424;2024-02-21T09:07:59;7.38;;;3.60;;
76693;SDS011;69667;52.136;5.424;2024-02-21T09:10:29;12.07;;;4.65;;
76693;SDS011;69667;52.136;5.424;2024-02-21T09:12:58;10.30;;;4.00;;
76693;SDS011;69667;52.136;5.424;2024-02-21T09:15:26;6.63;;;3.08;;
76693;SDS011;69667;52.136;5.424;2024-02-21T09:17:58;7.68;;;3.58;;
76693;SDS011;69667;52.136;5.424;2024-02-21T09:20:28;12.20;;;4.22;;
76693;SDS011;69667;52.136;5.424;2024-02-21T09:22:58;5.32;;;2.70;;
76693;SDS011;69667;52.136;5.424;2024-02-21T09:25:26;7.53;;;3.50;;
76693;SDS011;69667;52.136;5.424;2024-02-21T09:27:55;9.80;;;3.42;;
76693;SDS011;69667;52.136;5.424;2024-02-21T09:30:25;7.45;;;3.13;;
76693;SDS011;69667;52.136;5.424;2024-02-21T09:32:53;5.90;;;3.28;;
76693;SDS011;69667;52.136;5.424;2024-02-21T09:35:22;7.22;;;3.38;;
76693;SDS011;69667;52.136;5.424;2024-02-21T09:37:50;9.60;;;3.33;;
76693;SDS011;69667;52.136;5.424;2024-02-21T09:40:20;8.63;;;3.22;;
76693;SDS011;69667;52.136;5.424;2024-02-21T09:42:48;11.48;;;3.35;;
76693;SDS011;69667;52.136;5.424;2024-02-21T09:45:23;4.78;;;3.00;;
76693;SDS011;69667;52.136;5.424;2024-02-21T09:50:39;5.53;;;2.55;;
76693;SDS011;69667;52.136;5.424;2024-02-21T09:55:37;8.68;;;2.78;;
76693;SDS011;69667;52.136;5.424;2024-02-21T09:58:08;9.27;;;2.92;;
76693;SDS011;69667;52.136;5.424;2024-02-21T10:00:37;7.72;;;2.85;;
76693;SDS011;69667;52.136;5.424;2024-02-21T10:03:05;6.78;;;2.92;;
76693;SDS011;69667;52.136;5.424;2024-02-21T10:05:36;7.88;;;2.92;;
76693;SDS011;69667;52.136;5.424;2024-02-21T10:08:05;8.38;;;3.10;;
76693;SDS011;69667;52.136;5.424;2024-02-21T10:10:43;6.53;;;3.08;;
76693;SDS011;69667;52.136;5.424;2024-02-21T10:13:24;5.53;;;2.75;;
76693;SDS011;69667;52.136;5.424;2024-02-21T10:16:06;7.53;;;2.95;;
76693;SDS011;69667;52.136;5.424;2024-02-21T10:18:35;6.47;;;2.70;;
76693;SDS011;69667;52.136;5.424;2024-02-21T10:21:04;8.07;;;3.08;;
76693;SDS011;69667;52.136;5.424;2024-02-21T10:23:46;6.65;;;2.75;;
76693;SDS011;69667;52.136;5.424;2024-02-21T10:26:19;6.65;;;2.47;;
76693;SDS011;69667;52.136;5.424;2024-02-21T10:28:48;7.03;;;2.72;;
76693;SDS011;69667;52.136;5.424;2024-02-21T10:31:26;4.25;;;1.90;;
76693;SDS011;69667;52.136;5.424;2024-02-21T10:33:59;8.75;;;2.63;;
76693;SDS011;69667;52.136;5.424;2024-02-21T10:36:33;6.45;;;2.25;;
76693;SDS011;69667;52.136;5.424;2024-02-21T10:39:01;4.93;;;2.17;;
76693;SDS011;69667;52.136;5.424;2024-02-21T10:41:29;4.60;;;2.55;;
76693;SDS011;69667;52.136;5.424;2024-02-21T10:43:59;9.02;;;2.30;;
76693;SDS011;69667;52.136;5.424;2024-02-21T10:46:33;5.72;;;2.25;;
76693;SDS011;69667;52.136;5.424;2024-02-21T10:49:10;7.03;;;2.25;;
76693;SDS011;69667;52.136;5.424;2024-02-21T10:51:43;5.18;;;2.40;;
76693;SDS011;69667;52.136;5.424;2024-02-21T10:57:07;4.32;;;1.70;;
76693;SDS011;69667;52.136;5.424;2024-02-21T10:59:38;3.53;;;2.05;;
76693;SDS011;69667;52.136;5.424;2024-02-21T11:02:08;3.85;;;2.05;;
76693;SDS011;69667;52.136;5.424;2024-02-21T11:04:36;4.68;;;2.15;;
76693;SDS011;69667;52.136;5.424;2024-02-21T11:07:07;3.70;;;2.03;;
76693;SDS011;69667;52.136;5.424;2024-02-21T11:09:38;3.65;;;1.92;;
76693;SDS011;69667;52.136;5.424;2024-02-21T11:12:06;5.13;;;2.50;;
76693;SDS011;69667;52.136;5.424;2024-02-21T11:14:37;3.90;;;1.98;;
76693;SDS011;69667;52.136;5.424;2024-02-21T11:19:45;8.57;;;2.63;;
76693;SDS011;69667;52.136;5.424;2024-02-21T11:22:15;6.50;;;2.40;;
76693;SDS011;69667;52.136;5.424;2024-02-21T11:24:50;5.72;;;2.40;;
76693;SDS011;69667;52.136;5.424;2024-02-21T11:27:19;6.10;;;2.75;;
76693;SDS011;69667;52.136;5.424;2024-02-21T11:29:49;5.53;;;2.40;;
76693;SDS011;69667;52.136;5.424;2024-02-21T11:32:21;4.90;;;2.60;;
76693;SDS011;69667;52.136;5.424;2024-02-21T11:34:57;5.82;;;2.15;;
76693;SDS011;69667;52.136;5.424;2024-02-21T11:37:30;5.75;;;2.47;;
76693;SDS011;69667;52.136;5.424;2024-02-21T11:40:06;4.82;;;2.30;;
76693;SDS011;69667;52.136;5.424;2024-02-21T11:42:39;4.88;;;2.63;;
76693;SDS011;69667;52.136;5.424;2024-02-21T11:45:07;5.22;;;2.60;;
76693;SDS011;69667;52.136;5.424;2024-02-21T11:47:36;6.90;;;2.22;;
76693;SDS011;69667;52.136;5.424;2024-02-21T11:50:09;7.05;;;2.60;;
76693;SDS011;69667;52.136;5.424;2024-02-21T11:52:40;6.53;;;2.60;;
76693;SDS011;69667;52.136;5.424;2024-02-21T11:55:08;4.95;;;2.92;;
76693;SDS011;69667;52.136;5.424;2024-02-21T11:57:37;6.30;;;2.88;;
76693;SDS011;69667;52.136;5.424;2024-02-21T12:00:14;7.40;;;2.40;;
76693;SDS011;69667;52.136;5.424;2024-02-21T12:02:43;6.90;;;2.67;;
76693;SDS011;69667;52.136;5.424;2024-02-21T12:05:13;5.93;;;3.13;;
76693;SDS011;69667;52.136;5.424;2024-02-21T12:07:43;5.72;;;2.30;;
76693;SDS011;69667;52.136;5.424;2024-02-21T12:10:12;7.45;;;3.47;;
76693;SDS011;69667;52.136;5.424;2024-02-21T12:12:41;5.63;;;2.80;;
76693;SDS011;69667;52.136;5.424;2024-02-21T12:15:09;7.65;;;3.03;;
76693;SDS011;69667;52.136;5.424;2024-02-21T12:17:38;8.27;;;2.72;;
76693;SDS011;69667;52.136;5.424;2024-02-21T12:20:09;5.85;;;2.38;;
76693;SDS011;69667;52.136;5.424;2024-02-21T12:22:42;5.28;;;2.65;;
76693;SDS011;69667;52.136;5.424;2024-02-21T12:25:17;7.15;;;3.10;;
76693;SDS011;69667;52.136;5.424;2024-02-21T12:27:47;8.13;;;3.03;;
76693;SDS011;69667;52.136;5.424;2024-02-21T12:30:16;4.40;;;2.53;;
76693;SDS011;69667;52.136;5.424;2024-02-21T12:32:45;9.02;;;3.03;;
76693;SDS011;69667;52.136;5.424;2024-02-21T12:35:16;5.50;;;2.13;;
76693;SDS011;69667;52.136;5.424;2024-02-21T12:37:45;5.15;;;2.42;;
76693;SDS011;69667;52.136;5.424;2024-02-21T12:40:14;5.18;;;2.53;;
76693;SDS011;69667;52.136;5.424;2024-02-21T12:42:42;4.50;;;2.47;;
76693;SDS011;69667;52.136;5.424;2024-02-21T12:45:12;7.28;;;2.75;;
76693;SDS011;69667;52.136;5.424;2024-02-21T12:47:43;5.88;;;2.35;;
76693;SDS011;69667;52.136;5.424;2024-02-21T12:50:11;6.22;;;2.20;;
76693;SDS011;69667;52.136;5.424;2024-02-21T12:52:39;4.43;;;2.13;;
76693;SDS011;69667;52.136;5.424;2024-02-21T12:55:08;6.95;;;2.55;;
76693;SDS011;69667;52.136;5.424;2024-02-21T12:57:38;4.35;;;2.00;;
76693;SDS011;69667;52.136;5.424;2024-02-21T13:00:07;3.38;;;2.03;;
76693;SDS011;69667;52.136;5.424;2024-02-21T13:02:36;4.57;;;1.92;;
76693;SDS011;69667;52.136;5.424;2024-02-21T13:05:06;7.72;;;2.58;;
76693;SDS011;69667;52.136;5.424;2024-02-21T13:07:37;4.72;;;2.40;;
76693;SDS011;69667;52.136;5.424;2024-02-21T13:10:05;3.65;;;2.22;;
76693;SDS011;69667;52.136;5.424;2024-02-21T13:12:35;7.00;;;2.28;;
76693;SDS011;69667;52.136;5.424;2024-02-21T13:15:03;4.13;;;2.17;;
76693;SDS011;69667;52.136;5.424;2024-02-21T13:17:32;4.18;;;1.95;;
76693;SDS011;69667;52.136;5.424;2024-02-21T13:20:02;6.82;;;2.05;;
76693;SDS011;69667;52.136;5.424;2024-02-21T13:22:31;5.97;;;2.17;;
76693;SDS011;69667;52.136;5.424;2024-02-21T13:24:59;6.78;;;2.38;;
76693;SDS011;69667;52.136;5.424;2024-02-21T13:27:28;4.25;;;2.15;;
76693;SDS011;69667;52.136;5.424;2024-02-21T13:29:56;5.65;;;1.95;;
76693;SDS011;69667;52.136;5.424;2024-02-21T13:32:26;5.90;;;2.10;;
76693;SDS011;69667;52.136;5.424;2024-02-21T13:34:54;4.28;;;1.95;;
76693;SDS011;69667;52.136;5.424;2024-02-21T13:37:22;4.03;;;1.77;;
76693;SDS011;69667;52.136;5.424;2024-02-21T13:39:51;7.88;;;2.08;;
76693;SDS011;69667;52.136;5.424;2024-02-21T13:42:19;4.82;;;2.08;;
76693;SDS011;69667;52.136;5.424;2024-02-21T13:44:48;4.47;;;1.60;;
76693;SDS011;69667;52.136;5.424;2024-02-21T13:47:17;5.63;;;1.65;;
76693;SDS011;69667;52.136;5.424;2024-02-21T13:49:45;6.15;;;1.90;;
76693;SDS011;69667;52.136;5.424;2024-02-21T13:52:13;4.05;;;2.40;;
76693;SDS011;69667;52.136;5.424;2024-02-21T13:54:41;4.90;;;2.10;;
76693;SDS011;69667;52.136;5.424;2024-02-21T13:57:10;3.58;;;1.90;;
76693;SDS011;69667;52.136;5.424;2024-02-21T13:59:38;4.60;;;1.60;;
76693;SDS011;69667;52.136;5.424;2024-02-21T14:04:35;6.10;;;2.00;;
76693;SDS011;69667;52.136;5.424;2024-02-21T14:07:04;5.70;;;1.88;;
76693;SDS011;69667;52.136;5.424;2024-02-21T14:09:33;3.95;;;1.52;;
76693;SDS011;69667;52.136;5.424;2024-02-21T14:12:02;3.60;;;1.90;;
76693;SDS011;69667;52.136;5.424;2024-02-21T14:14:30;2.65;;;1.40;;
76693;SDS011;69667;52.136;5.424;2024-02-21T14:17:02;5.05;;;2.22;;
76693;SDS011;69667;52.136;5.424;2024-02-21T14:21:59;2.58;;;1.42;;
76693;SDS011;69667;52.136;5.424;2024-02-21T14:24:29;3.17;;;2.03;;
76693;SDS011;69667;52.136;5.424;2024-02-21T14:26:57;4.75;;;1.70;;
76693;SDS011;69667;52.136;5.424;2024-02-21T14:29:26;4.45;;;1.50;;
76693;SDS011;69667;52.136;5.424;2024-02-21T14:31:55;3.60;;;1.70;;
76693;SDS011;69667;52.136;5.424;2024-02-21T14:34:24;3.28;;;1.75;;
76693;SDS011;69667;52.136;5.424;2024-02-21T14:36:54;4.25;;;1.63;;
76693;SDS011;69667;52.136;5.424;2024-02-21T14:39:22;5.68;;;1.83;;
76693;SDS011;69667;52.136;5.424;2024-02-21T14:41:50;3.28;;;1.15;;
76693;SDS011;69667;52.136;5.424;2024-02-21T14:44:18;3.08;;;1.52;;
76693;SDS011;69667;52.136;5.424;2024-02-21T14:46:47;6.25;;;1.75;;
76693;SDS011;69667;52.136;5.424;2024-02-21T14:49:15;3.83;;;1.83;;
76693;SDS011;69667;52.136;5.424;2024-02-21T14:51:47;3.63;;;1.42;;
76693;SDS011;69667;52.136;5.424;2024-02-21T14:54:15;3.40;;;1.20;;
76693;SDS011;69667;52.136;5.424;2024-02-21T14:56:44;3.55;;;1.75;;
76693;SDS011;69667;52.136;5.424;2024-02-21T14:59:13;3.20;;;1.60;;
76693;SDS011;69667;52.136;5.424;2024-02-21T15:01:55;7.47;;;2.17;;
76693;SDS011;69667;52.136;5.424;2024-02-21T15:04:24;4.68;;;1.65;;
76693;SDS011;69667;52.136;5.424;2024-02-21T15:06:52;4.30;;;1.20;;
76693;SDS011;69667;52.136;5.424;2024-02-21T15:11:49;6.13;;;1.75;;
76693;SDS011;69667;52.136;5.424;2024-02-21T15:14:19;4.07;;;1.60;;
76693;SDS011;69667;52.136;5.424;2024-02-21T15:16:51;9.55;;;1.77;;
76693;SDS011;69667;52.136;5.424;2024-02-21T15:19:19;4.72;;;1.83;;
76693;SDS011;69667;52.136;5.424;2024-02-21T15:21:48;4.88;;;2.00;;
76693;SDS011;69667;52.136;5.424;2024-02-21T15:24:18;6.95;;;1.73;;
76693;SDS011;69667;52.136;5.424;2024-02-21T15:26:46;3.20;;;1.40;;